createdAt,value
2016-12-20T04:13:38.185Z,0.94
2016-12-20T05:05:03.027Z,0.85
2016-12-20T05:05:56.714Z,0.85
2016-12-20T05:06:50.320Z,0.77
2016-12-20T05:07:44.492Z,0.76
2016-12-20T05:08:37.989Z,0.74
2016-12-20T05:09:31.515Z,0.76
2016-12-20T06:06:59.261Z,0.44
2016-12-20T07:04:14.831Z,-0.02
2016-12-20T07:05:08.345Z,-0.05
2016-12-20T07:06:01.788Z,-0.09
2016-12-20T07:06:55.365Z,-0.02
2016-12-20T08:05:08.107Z,0.59
2016-12-20T08:06:01.568Z,0.58
2016-12-20T08:06:55.075Z,0.49
2016-12-20T08:07:48.576Z,0.7
2016-12-20T08:08:42.058Z,0.74
2016-12-20T08:09:35.500Z,0.77
2016-12-20T08:10:29.118Z,0.82
2016-12-20T08:11:22.719Z,0.92
2016-12-20T08:11:54.999Z,0.85
2016-12-20T09:03:48.250Z,2.69
2016-12-20T09:04:41.757Z,2.76
2016-12-20T09:05:35.020Z,2.72
2016-12-20T10:03:41.243Z,9.62
2016-12-20T10:04:34.504Z,9.85
2016-12-20T12:03:48.727Z,11.74
2016-12-20T12:04:42.385Z,11.59
2016-12-20T12:05:14.603Z,11.58
2016-12-20T12:05:45.883Z,11.48
2016-12-20T12:06:18.096Z,11.43
2016-12-20T12:07:09.402Z,11.4
2016-12-20T12:07:41.263Z,11.3
2016-12-20T12:08:13.110Z,11.13
2016-12-20T12:08:44.647Z,11.01
2016-12-20T16:02:19.358Z,1.67
2016-12-20T16:03:13.299Z,1.66
2016-12-20T16:03:44.521Z,1.63
2016-12-20T16:04:16.870Z,1.64
2016-12-20T16:04:48.071Z,1.61
2016-12-20T16:05:20.894Z,1.66
2016-12-20T16:05:52.409Z,1.61
2016-12-20T16:06:23.961Z,1.74
2016-12-20T16:06:57.619Z,1.7
2016-12-20T16:07:30.955Z,1.67
2016-12-20T16:08:03.894Z,1.67
2016-12-20T16:08:37.055Z,1.64
2016-12-20T16:09:09.358Z,1.63
2016-12-20T16:10:26.122Z,1.67
2016-12-20T16:11:43.379Z,1.66
2016-12-20T18:03:11.133Z,0.11
2016-12-20T18:03:43.000Z,0.05
2016-12-20T18:04:14.610Z,0.12
2016-12-20T18:04:46.390Z,0.08
2016-12-20T18:05:18.139Z,0.02
2016-12-20T18:05:49.819Z,0.06
2016-12-20T19:04:40.428Z,0.06
2016-12-20T19:05:34.399Z,0.09
2016-12-20T20:05:35.084Z,0.3
2016-12-20T21:22:04.693Z,0.39
2016-12-20T21:22:57.076Z,0.39
2016-12-20T21:23:29.192Z,0.37
2016-12-20T21:24:00.797Z,0.36
2016-12-20T21:24:32.103Z,0.44
2016-12-20T21:25:26.230Z,0.4
2016-12-20T21:25:57.959Z,0.37
2016-12-20T21:26:29.765Z,0.42
